Mason Valley, Nevada Weather observations

Data are for observation ending at time listed.
 Day   Time    Ave.   Ave.  Ave.  Vector   Max.   Stn.    Total    Solar   Ave.  
  of    of     Air    Rel.  Wind   Wind    Wind   Baro.  Precip.   Rad.    Soil  
Year   Day     Temp.  Hum.  Speed  Dir.    Gust   Pres.                    Temp. 
2014   (PST)    F      %     mph   deg.    mph     mb.     in.     W/m2     F   
------------------------------------------------------------------------------
 113    4:00   31.9    54    0.0     0      0.0   868.3    0.00       0    58.6
 113    4:10   31.4    55    0.1   262      2.3   868.3    0.00       0    58.6
 113    4:20   32.4    54    1.5   252      3.1   868.4    0.00       0    58.5
 113    4:30   29.5    56    1.5   152      3.9   868.6    0.00       0    58.3
 113    4:40   27.2    60    2.5   175      3.6   868.6    0.00       0    58.3
 113    4:50   27.0    59    0.6   174      2.5   868.7    0.00       0    58.3
 113    5:00   26.2    62    2.4   146      3.9   868.8    0.00       1    58.2
 113    5:10   26.6    65    2.7   147      4.1   868.9    0.00       5    58.2
 113    5:20   26.3    66    3.8   148      4.8   868.9    0.00      13    57.9
 113    5:30   26.5    66    2.7   142      3.9   869.0    0.00      28    57.6
 113    5:40   28.6    64    2.7   136      4.2   869.1    0.00      50    57.3
 113    5:50   30.0    66    3.1   132      4.6   869.3    0.00      79    56.8
 113    6:00   32.9    62    2.6   170      4.2   869.3    0.00     113    56.4
 113    6:10   36.7    55    3.4   181      5.4   869.4    0.00     144    55.9
 113    6:20   38.6    52    3.3   191      4.8   869.5    0.00     178    55.3
 113    6:30   40.9    49    3.1   173      4.6   869.6    0.00     211    54.9
 113    6:40   43.6    44    3.9   170      4.7   869.6    0.00     246    54.5
 113    6:50   45.7    40    2.9   176      4.8   869.6    0.00     282    54.2
 113    7:00   46.4    38    2.8   158      4.5   869.6    0.00     318    54.1
 113    7:10   44.9    40    3.9   150      6.5   869.6    0.00     350    54.1
 113    7:20   46.9    37    3.6   174      5.2   869.7    0.00     383    54.2
 113    7:30   48.0    35    4.2   181      6.9   869.7    0.00     418    54.3
 113    7:40   48.0    35    3.9   163      7.1   869.7    0.00     450    54.4
 113    7:50   47.4    35    4.0   145      6.9   869.6    0.00     496    54.5
 113    8:00   47.9    35    3.5   130      7.6   869.6    0.00     523    54.5
 113    8:10   47.1    37    4.5    88      7.4   869.5    0.00     559    54.6
 113    8:20   47.6    36    3.2    92      7.0   869.5    0.00     591    54.7
 113    8:30   47.4    36    4.8    74      7.8   869.5    0.00     622    54.8
 113    8:40   48.6    35    3.5   111      8.5   869.4    0.00     643    54.9
 113    8:50   50.6    32    2.9   158      6.5   869.4    0.00     682    55.0
 113    9:00   51.0    32    3.8   162      9.5   869.4    0.00     712    55.0
 113    9:10   49.8    32    4.7   140      8.8   869.5    0.00     737    55.3
 113    9:20   50.9    31    5.2   176     10.4   869.4    0.00     765    55.5
 113    9:30   51.7    30    4.8   200     10.1   869.4    0.00     790    55.7
 113    9:40   52.2    30    3.1   154      6.3   869.3    0.00     813    55.8
 113    9:50   53.6    28    2.4   213      6.0   869.4    0.00     836    55.9
 113   10:00   51.1    29    6.5    57     10.5   869.4    0.00     856    56.1
 113   10:10   50.8    30    5.7    27     11.2   869.3    0.00     874    56.5
 113   10:20   51.7    30    5.8    68     10.2   869.3    0.00     892    56.8
 113   10:30   51.8    30    5.7    86     10.6   869.2    0.00     910    57.1
 113   10:40   54.7    27    4.7   186     10.3   869.1    0.00     924    57.2
 113   10:50   54.0    27    4.6   206     10.2   869.0    0.00     937    57.3
 113   11:00   55.7    26    4.5   161     10.5   868.8    0.00     948    57.5
 113   11:10   54.5    27    5.7    50     10.7   868.8    0.00     957    57.8
 113   11:20   53.5    28    4.4    93      9.8   868.6    0.00     965    58.0
 113   11:30   54.4    27    5.3    81     12.0   868.5    0.00     972    58.2
 113   11:40   54.4    27    5.1   120     11.2   868.3    0.00     974    58.5
 113   11:50   55.3    27    5.8    77     11.3   868.2    0.00     979    58.7
 113   12:00   54.9    27    4.6    92     10.3   868.1    0.00     978    58.8
 113   12:10   55.9    26    6.1    18     10.9   868.0    0.00     979    59.1
 113   12:20   56.5    25    7.9    15     13.8   868.0    0.00     970    59.4
 113   12:30   56.6    25    7.3    46     13.2   867.9    0.00     964    59.7
 113   12:40   56.9    25    6.1    59     11.4   867.8    0.00     960    60.0
 113   12:50   58.2    24    6.3    84     12.0   867.7    0.00     958    60.2
 113   13:00   57.7    24    8.2    19     13.2   867.7    0.00     945    60.4
 113   13:10   58.2    24    4.9    13     13.3   867.6    0.00     917    60.8
 113   13:20   58.7    24    7.2    12     13.0   867.5    0.00     901    61.0
 113   13:30   58.8    24    6.4    12     12.7   867.5    0.00     872    61.4
 113   13:40   59.1    24    9.0    19     14.8   867.5    0.00     863    61.6
 113   13:50   59.1    24    8.9    22     16.2   867.3    0.00     831    62.0
 113   14:00   59.5    23    7.4    14     13.0   867.2    0.00     843    62.4
 113   14:10   60.0    22    5.4    13      9.9   867.1    0.00     825    62.8
 113   14:20   60.0    23    7.1    36     12.4   866.9    0.00     792    62.9
 113   14:30   59.9    23    7.9    27     12.2   866.7    0.00     770    63.2
 113   14:40   60.6    22    6.4    15     11.3   866.6    0.00     762    63.5
 113   14:50   60.8    22    6.7    16     14.3   866.5    0.00     741    63.8
 113   15:00   61.6    22    7.2    28     13.0   866.4    0.00     686    64.1
 113   15:10   62.0    21    6.0    18     12.9   866.3    0.00     675    64.4
 113   15:20   62.1    20    5.2   345     13.2   866.2    0.00     640    64.6
 113   15:30   62.4    20    7.1     2     12.1   866.2    0.00     618    64.7
 113   15:40   62.1    20    6.8    12     14.0   866.2    0.00     586    65.1
 113   15:50   63.5    19    3.6   300      8.0   866.2    0.00     553    65.3
 113   16:00   62.8    20    6.7     6     12.1   866.2    0.00     504    65.4
 113   16:10   63.1    20    3.7    12      9.8   866.1    0.00     437    65.8
 113   16:20   63.2    20    7.2    17     12.9   866.0    0.00     437    66.0
 113   16:30   62.6    20    8.2    26     12.0   866.1    0.00     396    66.2
 113   16:40   62.6    20    7.9    38     12.5   866.1    0.00     388    66.5
 113   16:50   62.7    20    6.9    34     13.3   866.0    0.00     353    66.7
 113   17:00   62.8    20    5.2    49     10.9   866.0    0.00     300    66.7
 113   17:10   62.7    20    5.0    37      8.1   866.0    0.00     276    66.9
 113   17:20   62.9    20    4.9    30      8.2   866.0    0.00     256    67.0
 113   17:30   62.5    20    4.0    31      8.0   866.0    0.00     201    67.1
 113   17:40   62.6    20    3.7    22      7.6   865.9    0.00     127    67.2
 113   17:50   62.1    21    3.9    52      6.8   865.9    0.00      92    67.3
 113   18:00   62.2    21    3.7    33      6.4   866.0    0.00      88    67.3
 113   18:10   60.7    24    3.6    19      5.8   866.0    0.00      32    67.5
 113   18:20   60.0    23    1.9   342      3.6   866.2    0.00      22    67.8
 113   18:30   59.6    24    2.2   318      2.8   866.2    0.00      13    68.0
 113   18:40   58.9    24    2.2   303      4.6   866.4    0.00       5    68.1
 113   18:50   58.7    27    2.6   299      4.2   866.5    0.00       2    68.1
 113   19:00   58.3    28    3.1   318      5.3   866.5    0.00       0    68.0
 113   19:10   57.5    29    2.7   327      5.3   866.6    0.00       0    67.9
 113   19:20   54.6    32    4.4    15     11.2   866.7    0.00       0    67.9
 113   19:30   56.5    29    8.5     8     16.2   866.9    0.00       0    67.8
 113   19:40   56.6    28    4.8   338     10.1   867.0    0.00       0    67.4
 113   19:50   56.1    28    2.2   326      4.8   867.2    0.00       0    67.3
 113   20:00   54.2    28    3.7    76      6.9   867.4    0.00       0    67.2
 113   20:10   52.6    29    2.3   131      4.9   867.4    0.00       0    67.3
 113   20:20   52.3    29    0.4   140      2.5   867.4    0.00       0    67.4
 113   20:30   52.9    28    2.2   287      4.7   867.5    0.00       0    67.3
 113   20:40   52.2    29    2.4   232      4.7   867.6    0.00       0    67.0
 113   20:50   49.5    30    4.0   169      4.8   867.8    0.00       0    66.8
 113   21:00   48.4    32    2.9   207      5.1   867.8    0.00       0    66.8
 113   21:10   51.6    30    2.7   272      3.9   867.9    0.00       0    66.6
 113   21:20   52.1    31    3.0   275      4.5   867.8    0.00       0    66.3
 113   21:30   51.2    31    2.3   285      3.9   867.8    0.00       0    65.9
 113   21:40   49.5    33    2.7   304      4.9   867.7    0.00       0    65.8
 113   21:50   51.1    34    2.4   309      4.1   867.8    0.00       0    65.7
 113   22:00   51.7    34    4.0   296      5.8   867.8    0.00       0    65.6
 113   22:10   51.7    35    3.5   301      5.1   867.9    0.00       0    65.1
 113   22:20   52.2    35    3.6   297      5.9   867.9    0.00       0    65.0
 113   22:30   52.1    36    3.4   303      4.8   867.9    0.00       0    64.7
 113   22:40   52.0    36    3.8   293      5.9   867.9    0.00       0    64.6
 113   22:50   51.6    36    3.7   293      5.7   867.8    0.00       0    64.4
 113   23:00   51.6    37    3.1   313      5.1   867.8    0.00       0    64.2
 113   23:10   51.8    37    3.0   302      5.3   867.8    0.00       0    64.1
 113   23:20   51.5    36    1.5   292      3.8   867.7    0.00       0    64.0
 113   23:30   50.0    38    2.3   264      4.2   867.6    0.00       0    63.8
 113   23:40   48.3    38    2.2   209      3.8   867.6    0.00       0    64.0
 113   23:50   46.2    41    2.6   188      3.7   867.5    0.00       0    64.0
 114    0:00   45.7    43    0.3   161      2.3   867.6    0.00       0    64.1
 114    0:10   45.4    44    0.0     0      0.0   867.9    0.00       0    64.1
 114    0:20   45.5    43    0.7   280      3.5   868.1    0.00       0    63.9
 114    0:30   46.6    42    0.6   244      2.3   868.0    0.00       0    63.7
 114    0:40   45.6    43    3.1   228      4.2   867.9    0.00       0    63.5
 114    0:50   45.5    40    1.3    45      3.7   867.9    0.00       0    63.3
 114    1:00   42.7    47    1.6    92      4.0   867.8    0.00       0    63.2
 114    1:10   43.5    47    0.6   196      2.8   867.9    0.00       0    63.1
 114    1:20   44.3    46    0.2   201      2.0   867.8    0.00       0    62.9
 114    1:30   45.0    46    0.4   139      2.5   867.7    0.00       0    62.7
 114    1:40   44.9    46    2.6   338      6.2   867.8    0.00       0    62.5
 114    1:50   45.3    47    2.5   307      4.1   867.9    0.00       0    62.4
 114    2:00   45.4    47    2.4   267      4.1   867.9    0.00       0    62.3
 114    2:10   43.6    47    2.0   230      4.6   867.7    0.00       0    62.2
 114    2:20   41.8    47    3.8   164      6.2   867.7    0.00       0    62.2
 114    2:30   40.5    51    5.1   194      7.3   867.8    0.00       0    62.2
 114    2:40   41.3    53    4.6   200      6.4   867.7    0.00       0    62.1
 114    2:50   41.8    52    4.7   207      5.8   867.8    0.00       0    61.9
 114    3:00   43.3    49    3.3   207      4.9   867.9    0.00       0    61.6
 114    3:10   41.7    50    3.8   197      4.8   867.8    0.00       0    61.6
 114    3:20   41.4    52    4.5   218      5.4   867.8    0.00       0    61.5
 114    3:30   41.0    52    3.0   204      4.7   867.9    0.00       0    61.4
 114    3:40   38.6    52    3.0   144      3.8   867.9    0.00       0    61.3
 114    3:50   37.4    56    1.2   149      3.4   868.0    0.00       0    61.3

Return to Mason Valley, Nevada graphs page.


Western Regional Climate Center,wrcc@dri.edu